»·PEaware :: SWA273 KPHX-KSAN

SWA273 :: KPHX-KSAN

FLIGHT INFORMATION

Flight Status: Arrived
Operator:
Southwest Airlines
More flights by this operator :: More flights under this callsign
Pilot: Ion I. (24133)
Aircraft: BOEING 737-800
(B738)
More flights by this aircraft type
Origin: KPHX Phoenix Sky Harbor Intl
United States
Destination: KSAN San Diego Intl-Lindbergh
United States
More flights between these airports :: More routes between these airports
Route: FYRBD1 MOHAK J2 HOGGZ LUCKI1
File this flight plan on PilotEdge
Remarks:
Altitude:
(Current/Filed)
32,000ft
Speed:
(Current/Filed)
460kts
Departed: 09-Jan-20 07:20 PM
Arrived: 09-Jan-20 08:19 PM
Distance/Time
Traveled:
264nm/0:58
Distance/Time
To Go:
Arrived

Flight Plot

Page will automatically refresh every two minutes.

Flight plan parsing failed; only flown route is shown


Map Options




Map Legend


Flown Route
Filed Route
Departure Airport
Arrival Airport
Navaid (VOR, NDB)
Fix

Horizontal Profiles

Position Reports

Time Latitude Longitude Heading Altitude Ground
Speed
09-Jan-20 18:52 33.433952 -111.999899 89 1143ft 0kts
09-Jan-20 18:53 33.433952 -111.999899 89 1143ft 0kts
09-Jan-20 18:53 33.433952 -111.999899 89 1143ft 0kts
09-Jan-20 18:55 33.433952 -111.999899 89 1143ft 0kts
09-Jan-20 18:55 33.433952 -111.999899 89 1143ft 0kts
09-Jan-20 18:56 33.433952 -111.999899 89 1143ft 0kts
09-Jan-20 18:58 33.433952 -111.999899 89 1143ft 0kts
09-Jan-20 18:58 33.433952 -111.999899 89 1143ft 0kts
09-Jan-20 18:59 33.433952 -111.999899 89 1143ft 0kts
09-Jan-20 19:00 33.433952 -111.999899 89 1143ft 0kts
09-Jan-20 19:01 33.433952 -111.999899 89 1143ft 0kts
09-Jan-20 19:02 33.433952 -111.999899 89 1143ft 0kts
09-Jan-20 19:03 33.433952 -111.999899 89 1143ft 0kts
09-Jan-20 19:04 33.433952 -111.999899 89 1143ft 0kts
09-Jan-20 19:05 33.433952 -111.999899 89 1143ft 0kts
09-Jan-20 19:06 33.433952 -111.999899 89 1143ft 0kts
09-Jan-20 19:07 33.433952 -111.999899 89 1143ft 0kts
09-Jan-20 19:08 33.433952 -111.999899 89 1143ft 0kts
09-Jan-20 19:09 33.433952 -111.999899 89 1143ft 0kts
09-Jan-20 19:10 33.433952 -111.999899 89 1143ft 0kts
09-Jan-20 19:11 33.433952 -111.999899 89 1143ft 0kts
09-Jan-20 19:12 33.434005 -112.000284 119 1143ft 2kts
09-Jan-20 19:13 33.434421 -112.000502 179 1143ft 0kts
09-Jan-20 19:14 33.434421 -112.000502 179 1143ft 0kts
09-Jan-20 19:15 33.434421 -112.000502 179 1143ft 0kts
09-Jan-20 19:16 33.432912 -112.000533 189 1143ft 9kts
09-Jan-20 19:17 33.432137 -111.996248 90 1143ft 14kts
09-Jan-20 19:18 33.431601 -111.993536 172 1143ft 7kts
09-Jan-20 19:19 33.431017 -112.005332 270 1143ft 120kts
09-Jan-20 19:20 33.430655 -112.059513 266 3216ft 177kts
09-Jan-20 19:21 33.410547 -112.128781 250 4705ft 259kts
09-Jan-20 19:22 33.356122 -112.177447 175 7626ft 283kts
09-Jan-20 19:23 33.278126 -112.153573 180 10449ft 295kts
09-Jan-20 19:24 33.216250 -112.214728 238 12429ft 322kts
09-Jan-20 19:25 33.161811 -112.312050 238 13592ft 382kts
09-Jan-20 19:26 33.101857 -112.420961 238 15909ft 396kts
09-Jan-20 19:27 33.039727 -112.530556 237 18271ft 403kts
09-Jan-20 19:28 32.975766 -112.642372 241 20164ft 414kts
09-Jan-20 19:29 32.943136 -112.773947 260 21843ft 421kts
09-Jan-20 19:30 32.923953 -112.913021 261 23322ft 431kts
09-Jan-20 19:31 32.904296 -113.055589 262 24725ft 438kts
09-Jan-20 19:32 32.884923 -113.199533 262 25914ft 443kts
09-Jan-20 19:33 32.865216 -113.343612 262 27196ft 439kts
09-Jan-20 19:34 32.845296 -113.486129 262 28531ft 433kts
09-Jan-20 19:35 32.825411 -113.625846 262 29852ft 426kts
09-Jan-20 19:36 32.805927 -113.763724 262 31017ft 422kts
09-Jan-20 19:37 32.786170 -113.900727 262 31933ft 421kts
09-Jan-20 19:38 32.774880 -114.038438 271 31945ft 417kts
09-Jan-20 19:39 32.779231 -114.176018 275 31944ft 417kts
09-Jan-20 19:40 32.784676 -114.313863 275 31942ft 417kts
09-Jan-20 19:41 32.804619 -114.448340 288 31941ft 414kts
09-Jan-20 19:42 32.840575 -114.578788 289 31946ft 415kts
09-Jan-20 19:43 32.873491 -114.710556 281 31956ft 418kts
09-Jan-20 19:44 32.876394 -114.849522 272 31961ft 421kts
09-Jan-20 19:45 32.873537 -114.987998 273 31333ft 416kts
09-Jan-20 19:46 32.870921 -115.107290 273 30470ft 418kts
09-Jan-20 19:47 32.867334 -115.246051 273 29471ft 421kts
09-Jan-20 19:48 32.859114 -115.386475 266 28448ft 431kts
09-Jan-20 19:49 32.838573 -115.525782 265 25210ft 429kts
09-Jan-20 19:50 32.815372 -115.666019 264 22495ft 428kts
09-Jan-20 19:51 32.792763 -115.802344 264 19867ft 412kts
09-Jan-20 19:52 32.778334 -115.932429 271 17814ft 388kts
09-Jan-20 19:53 32.769544 -116.059679 270 16045ft 377kts
09-Jan-20 19:54 32.760402 -116.178372 270 14436ft 345kts
09-Jan-20 19:55 32.751757 -116.288031 270 12944ft 321kts
09-Jan-20 19:56 32.744166 -116.388314 269 11579ft 301kts
09-Jan-20 19:57 32.737922 -116.466548 269 10516ft 285kts
09-Jan-20 19:58 32.729953 -116.557159 268 9493ft 267kts
09-Jan-20 19:59 32.721390 -116.644629 268 8124ft 254kts
09-Jan-20 20:00 32.715087 -116.721745 269 7155ft 218kts
09-Jan-20 20:01 32.709601 -116.791756 268 6313ft 226kts
09-Jan-20 20:02 32.693116 -116.865811 252 5888ft 247kts
09-Jan-20 20:03 32.667462 -116.944180 257 4767ft 256kts
09-Jan-20 20:04 32.690875 -117.010607 322 4518ft 211kts
09-Jan-20 20:05 32.743474 -117.005613 11 4454ft 193kts
09-Jan-20 20:06 32.784118 -116.962554 88 4480ft 229kts
09-Jan-20 20:07 32.770244 -116.889892 101 4780ft 224kts
09-Jan-20 20:08 32.755488 -116.818595 101 4951ft 225kts
09-Jan-20 20:09 32.727015 -116.754258 163 4962ft 227kts
09-Jan-20 20:10 32.689972 -116.791659 250 5032ft 197kts
09-Jan-20 20:11 32.673508 -116.855528 261 5069ft 204kts
09-Jan-20 20:12 32.667460 -116.919024 285 4889ft 183kts
09-Jan-20 20:13 32.682213 -116.975472 287 3209ft 174kts
09-Jan-20 20:14 32.694150 -117.025123 286 2087ft 140kts
09-Jan-20 20:15 32.705610 -117.073570 281 2104ft 151kts
09-Jan-20 20:16 32.716548 -117.120705 285 1613ft 149kts
09-Jan-20 20:17 32.728777 -117.170118 285 250ft 152kts
09-Jan-20 20:18 32.734389 -117.194407 252 23ft 7kts
09-Jan-20 20:19 32.734050 -117.196566 188 23ft 5kts
09-Jan-20 20:20 32.733339 -117.196495 174 23ft 0kts
09-Jan-20 20:21 32.733339 -117.196495 174 23ft 0kts
09-Jan-20 20:22 32.733339 -117.196495 174 23ft 0kts
09-Jan-20 20:23 32.733339 -117.196495 174 23ft 0kts

Navigation Log

Ident Type
Flight plan parsing failed, navigation log unavailable